Tiempo atmosférico en la estación meteorológica de Buñol, València/Valencia (585 m.)



Fecha
DESCASC
Temp. máxima en grados centígrados (hora)
DESCASC
Temp. mínima en grados centígrados (hora)
DESCASC
Temp. media en grados centígrados
DESCASC
Racha de viento máxima en m/sg (hora)
DESCASC
Velocidad máxima media en intervalos de 10 minutos(hora)
DESCASC
Precipitaciones diarias en mm
DESCASC
Precipitaciones de 00:00 a 06:00 en mm
DESCASC
Precipitaciones de 06:00 a 12:00 en mm
DESCASC
Precipitaciones de 12:00 a 18:00 en mm
DESCASC
Precipitaciones de 18:00 a 24:00 en mm
DESCASC
02-07-2020 31.3 (14:00) 16 (05:30) 23.6 8.33 (14:40) 3.61 (16:50) 0 0 0 0 0
01-07-2020 36.9 (17:40) 14.9 (06:50) 25.9 10.28 (10:20) 4.17 (10:20) 0 0 0 0 0
30-06-2020 29.6 (16:00) 14.2 (00:00) 21.9 8.33 (18:20) 3.33 (14:30) 0 0 0 0 0
29-06-2020 31.5 (14:40) 15.2 (00:00) 23.3 7.5 (16:50) 3.89 (16:00) 0 0 0 0 0
28-06-2020 30.6 (14:40) 13.7 (00:00) 22.2 7.22 (15:50) 3.61 (15:30) 0 0 0 0 0
27-06-2020 32.7 (15:10) 13.7 (00:00) 23.2 7.78 (15:50) 3.61 (16:10) 0 0 0 0 0
26-06-2020 29.1 (15:10) 13.4 (00:00) 21.3 8.61 (17:30) 3.61 (17:10) 0 0 0 0 0
25-06-2020 29.5 (14:00) 13.5 (00:00) 21.5 9.72 (15:40) 4.17 (15:40) 0 0 0 0 0
24-06-2020 29.8 (14:30) 13.5 (00:00) 21.6 6.11 (15:50) 2.78 (15:50) 0 0 0 0 0
23-06-2020 29.2 (15:10) 13.5 (00:00) 21.4 7.5 (15:20) 3.61 (16:50) 0 0 0 0 0
22-06-2020 29.6 (16:20) 14 (00:00) 21.8 7.78 (14:30) 3.06 (14:20) 0 0 0 0 0
21-06-2020 29.4 (15:20) 14.7 (00:00) 22 7.78 (16:50) 3.89 (16:00) 0 0 0 0 0
20-06-2020 28.9 (14:00) 13.2 (00:00) 21 7.78 (14:50) 3.89 (14:50) 0 0 0 0 0
19-06-2020 25 (15:20) 16.7 (00:00) 20.9 8.06 (15:30) 3.89 (16:30) 0.6 0.4 0.2 0 0
18-06-2020 23.9 (13:40) 16.3 (03:10) 20.1 8.89 (15:10) 4.72 (15:10) 0 0 0 0 0
17-06-2020 24.7 (13:10) 12.9 (00:00) 18.8 7.78 (15:20) 4.17 (14:40) 0 0 0 0 0
16-06-2020 27.5 (15:30) 14.4 (00:00) 20.9 8.06 (14:30) 3.33 (15:40) 0 0 0 0 0
15-06-2020 29.2 (16:00) 12.4 (00:00) 20.8 7.5 (12:10) 3.61 (12:30) 0 0 0 0 0
14-06-2020 28.1 (17:30) 11.7 (00:00) 19.9 7.5 (15:20) 2.78 (16:30) 0 0 0 0 0
13-06-2020 25.7 (18:00) 9.4 (00:00) 17.6 10.56 (10:40) 4.72 (10:40) 0 0 0 0 0
12-06-2020 23.8 (17:50) 14.6 (00:00) 19.2 14.17 (09:30) 5.28 (09:30) 0 0 0 0 0
11-06-2020 27.9 (18:00) 11.3 (00:00) 19.6 12.5 (17:40) 4.17 (18:20) 0 0 0 0 0
10-06-2020 26.1 (16:30) 8.2 (00:00) 17.2 7.78 (17:20) 3.06 (17:50) 0 0 0 0 0
09-06-2020 24.2 (16:10) 9 (00:00) 16.6 7.78 (13:40) 3.61 (17:30) 0 0 0 0 0
08-06-2020 19 (17:00) 12.9 (10:30) 15.9 5.56 (18:00) 3.33 (18:00) 59.4 10.2 34 15.2 0
07-06-2020 27.9 (17:30) 15.5 (00:00) 21.7 11.11 (16:30) 4.17 (16:10) 0.4 0 0 0 0.4
06-06-2020 30 (17:00) 13.6 (00:00) 21.8 7.78 (11:10) 3.89 (09:10) 0 0 0 0 0
05-06-2020 28.5 (18:00) 9.7 (00:00) 19.1 9.72 (12:00) 3.61 (12:00) 0.2 0 0.2 0 0
04-06-2020 21.6 (10:50) 13.1 (00:00) 17.4 12.78 (09:20) 5 (09:30) 3.4 0 0 3.4 0

Gráficas

Temp. máximas Temp. mínimas Temp. medias Precipitaciones Rachas de viento máximas Velocidades máximas media en intervalos de 10 minutos

Datos horarios

Fecha y hora oficial Temperatura (ºC) Velocidad del viento (km/h) Dirección del viento Racha (km/h) Dirección de racha Precipitación (mm) Presión (hPa) Tendencia (hPa) Humedad (%)
2020-07-03 23:00:00 21 3 Sudeste 12 Sudeste 0 -- -- 86
2020-07-03 22:00:00 21.2 6 Sudeste 16 Este 0 -- -- 85
2020-07-03 21:00:00 21.7 6 Sudeste 18 Sudeste 0 -- -- 84
2020-07-03 20:00:00 22.2 10 Sudeste 23 Este 0 -- -- 80
2020-07-03 19:00:00 23.1 9 Sudeste 22 Este 0 -- -- 76
2020-07-03 18:00:00 23.7 10 Sudeste 26 Este 0 -- -- 73
2020-07-03 17:00:00 24.7 12 Sudeste 24 Este 0 -- -- 69
2020-07-03 16:00:00 24.2 9 Sudeste 27 Sudeste 0 -- -- 71
2020-07-03 15:00:00 24.4 10 Sudeste 26 Sudeste 0 -- -- 71
2020-07-03 14:00:00 24.5 14 Sudeste 25 Este 0 -- -- 71
2020-07-03 13:00:00 24.1 9 Sudeste 24 Este 0 -- -- 67
2020-07-03 12:00:00 22.8 9 Sudeste 19 Este 0 -- -- 70
2020-07-03 11:00:00 22 6 Sudeste 18 Sudeste 0 -- -- 71
2020-07-03 10:00:00 20.9 5 Sudeste 14 Sudeste 0 -- -- 74
2020-07-03 09:00:00 20.4 6 Sudeste 18 Sudeste 0 -- -- 76
2020-07-03 08:00:00 20.2 5 Sudeste 15 Sudeste 0 -- -- 79
2020-07-03 07:00:00 20.5 5 Sudeste 19 Este 0 -- -- 84
2020-07-03 06:00:00 20.9 3 Sudeste 12 Este 0 -- -- 89
2020-07-03 05:00:00 20.8 5 Sudeste 14 Este 0 -- -- 90
2020-07-03 04:00:00 20 2 Sur 6 Sur 0 -- -- 92
2020-07-03 03:00:00 18.9 0 Calma 2 Sudeste 0 -- -- 87
2020-07-03 02:00:00 19.1 0 Calma 3 Noroeste 0 -- -- 85
2020-07-03 01:00:00 20 0 Calma 4 Este 0 -- -- 85
2020-07-03 00:00:00 20.4 0 Calma 2 Este 0 -- -- 83
2020-07-02 23:00:00 21.6 0 Calma 4 Este 0 -- -- 79
2020-07-02 22:00:00 23.1 2 Este 16 Sudeste 0 -- -- 76
2020-07-02 21:00:00 24.2 9 Sudeste 22 Sudeste 0 -- -- 73
2020-07-02 20:00:00 26.5 8 Sudeste 24 Sudeste 0 -- -- 67
2020-07-02 19:00:00 27.9 8 Sudeste 23 Sudeste 0 -- -- 62
2020-07-02 18:00:00 29.2 8 Sudeste 27 Sudeste 0 -- -- 59
2020-07-02 17:00:00 29.8 12 Sudeste 28 Sudeste 0 -- -- 57
2020-07-02 16:00:00 30.1 9 Sudeste 26 Este 0 -- -- 57
2020-07-02 15:00:00 30.3 8 Sur 30 Sudeste 0 -- -- 56
2020-07-02 14:00:00 31.3 8 Sudeste 23 Este 0 -- -- 49
2020-07-02 13:00:00 29.4 8 Sudeste 24 Este 0 -- -- 53
2020-07-02 12:00:00 27.5 4 Sudeste 17 Sudeste 0 -- -- 60
2020-07-02 11:00:00 25.9 6 Sudeste 15 Sudeste 0 -- -- 67
2020-07-02 10:00:00 23.7 6 Sudeste 12 Sudeste 0 -- -- 75
2020-07-02 09:00:00 20.2 0 Calma 4 Sur 0 -- -- 86
2020-07-02 08:00:00 18.3 2 Norte 4 Norte 0 -- -- 78
2020-07-02 07:00:00 17.6 0 Calma 3 Sudeste 0 -- -- 78
2020-07-02 06:00:00 16.6 0 Calma 3 Este 0 -- -- 69
2020-07-02 05:00:00 16.5 0 Calma 4 Norte 0 -- -- 62
2020-07-02 04:00:00 17.7 0 Calma 10 Norte 0 -- -- 60
2020-07-02 03:00:00 18.5 4 Norte 11 Noroeste 0 -- -- 60
2020-07-02 02:00:00 19.2 4 Norte 14 Noroeste 0 -- -- 67
2020-07-02 01:00:00 20 6 Noroeste 13 Noroeste 0 -- -- 68
2020-07-02 00:00:00 21.8 3 Noroeste 9 Noroeste 0 -- -- 59
2020-07-01 23:00:00 24.8 0 Calma 5 Este 0 -- -- 65
2020-07-01 22:00:00 27.6 0 Calma 7 Sudeste 0 -- -- 58
2020-07-01 21:00:00 31.1 2 Sur 23 Noroeste 0 -- -- 49
2020-07-01 20:00:00 35.3 8 Noroeste 30 Noroeste 0 -- -- 22
2020-07-01 19:00:00 36.3 8 Oeste 32 Oeste 0 -- -- 20
2020-07-01 18:00:00 36.7 9 Noroeste 30 Noroeste 0 -- -- 22
2020-07-01 17:00:00 36.3 11 Noroeste 33 Norte 0 -- -- 22
2020-07-01 16:00:00 36.3 12 Noroeste 37 Norte 0 -- -- 22
2020-07-01 15:00:00 35.8 12 Noroeste 30 Noroeste 0 -- -- 24
2020-07-01 14:00:00 34.8 11 Noroeste 33 Noroeste 0 -- -- 26
2020-07-01 13:00:00 33.1 11 Noroeste 28 Noroeste 0 -- -- 35
2020-07-01 12:00:00 30.5 11 Noroeste 27 Oeste 0 -- -- 42
2020-07-01 11:00:00 27.9 12 Noroeste 37 Oeste 0 -- -- 48
2020-07-01 10:00:00 24.8 11 Oeste 30 Noroeste 0 -- -- 57
2020-07-01 09:00:00 20.4 10 Noroeste 19 Noroeste 0 -- -- 75
2020-07-01 08:00:00 15.9 4 Norte 11 Noroeste 0 -- -- 92
2020-07-01 07:00:00 14.9 5 Norte 12 Noroeste 0 -- -- 91
2020-07-01 06:00:00 15.2 3 Norte 9 Norte 0 -- -- 90
2020-07-01 05:00:00 15.8 3 Noroeste 8 Norte 0 -- -- 89
2020-07-01 04:00:00 16.3 2 Noroeste 10 Noroeste 0 -- -- 87
2020-07-01 03:00:00 17.1 3 Noroeste 7 Noroeste 0 -- -- 87
2020-07-01 02:00:00 17.8 3 Noroeste 8 Noroeste 0 -- -- 84
2020-07-01 01:00:00 19 0 Calma 5 Noroeste 0 -- -- 83
2020-07-01 00:00:00 19.9 0 Calma 3 Nordeste 0 -- -- 79
2020-06-30 23:00:00 21.4 0 Calma 4 Este 0 -- -- 74
2020-06-30 22:00:00 23.1 0 Calma 8 Sudeste 0 -- -- 69
2020-06-30 21:00:00 24.7 4 Sudeste 13 Sudeste 0 -- -- 66
2020-06-30 20:00:00 26.2 6 Sudeste 18 Sudeste 0 -- -- 61
2020-06-30 19:00:00 27.2 9 Sudeste 30 Sudeste 0 -- -- 59
2020-06-30 18:00:00 28 9 Sudeste 30 Este 0 -- -- 57
2020-06-30 17:00:00 28.9 10 Sudeste 24 Este 0 -- -- 58
2020-06-30 16:00:00 29.6 8 Sudeste 23 Sudeste 0 -- -- 57
2020-06-30 15:00:00 29.2 9 Sudeste 26 Sudeste 0 -- -- 55
2020-06-30 14:00:00 28.2 12 Sudeste 27 Este 0 -- -- 58
2020-06-30 13:00:00 27.4 5 Sudeste 20 Sudeste 0 -- -- 59
2020-06-30 12:00:00 25.5 7 Sudeste 18 Este 0 -- -- 67
2020-06-30 11:00:00 23.3 6 Sudeste 15 Sudeste 0 -- -- 74
2020-06-30 10:00:00 20.8 3 Sur 7 Sur 0 -- -- 84
2020-06-30 09:00:00 17.5 0 Calma 4 Sudoeste 0 -- -- 90
2020-06-30 08:00:00 15.4 0 Calma 7 Noroeste 0 -- -- 89
2020-06-30 07:00:00 14.2 2 Norte 5 Noroeste 0 -- -- 90
2020-06-30 06:00:00 14.7 0 Calma 7 Noroeste 0 -- -- 89
2020-06-30 05:00:00 15.4 0 Calma 4 Norte 0 -- -- 87
2020-06-30 04:00:00 16.1 0 Calma 6 Norte 0 -- -- 85
2020-06-30 03:00:00 17.2 2 Noroeste 6 Noroeste 0 -- -- 85
2020-06-30 02:00:00 18.4 0 Calma 3 Noroeste 0 -- -- 85
2020-06-30 01:00:00 19.7 0 Calma 4 Este 0 -- -- 80
2020-06-30 00:00:00 21.1 0 Calma 5 Este 0 -- -- 80
2020-06-29 23:00:00 22 0 Calma 6 Sudeste 0 -- -- 79
2020-06-29 22:00:00 22.8 0 Calma 12 Este 0 -- -- 76
2020-06-29 21:00:00 24.5 4 Sudeste 18 Sudeste 0 -- -- 70
2020-06-29 20:00:00 26.4 6 Sudeste 24 Sudeste 0 -- -- 59
2020-06-29 19:00:00 27.4 9 Sudeste 22 Sudeste 0 -- -- 55
2020-06-29 18:00:00 28.6 10 Sudeste 22 Sudeste 0 -- -- 56
2020-06-29 17:00:00 30 6 Sur 27 Sudeste 0 -- -- 50
2020-06-29 16:00:00 30.3 14 Sudeste 26 Sudeste 0 -- -- 51
2020-06-29 15:00:00 31.3 6 Sudeste 23 Este 0 -- -- 49
2020-06-29 14:00:00 30.8 8 Sudeste 21 Sudeste 0 -- -- 46
2020-06-29 13:00:00 29.3 10 Sudeste 21 Sudeste 0 -- -- 50
2020-06-29 12:00:00 28 8 Sudeste 21 Este 0 -- -- 52
2020-06-29 11:00:00 26.6 7 Sudeste 15 Este 0 -- -- 54
2020-06-29 10:00:00 23.3 3 Sur 8 Sur 0 -- -- 63
2020-06-29 09:00:00 18.1 0 Calma 5 Norte 0 -- -- 74
2020-06-29 08:00:00 15.8 3 Noroeste 9 Norte 0 -- -- 84
2020-06-29 07:00:00 15.3 2 Norte 8 Noroeste 0 -- -- 86
2020-06-29 06:00:00 15.7 3 Norte 10 Noroeste 0 -- -- 85
2020-06-29 05:00:00 15.8 4 Norte 10 Norte 0 -- -- 84
2020-06-29 04:00:00 16.1 4 Noroeste 10 Noroeste 0 -- -- 85
2020-06-29 03:00:00 16.5 3 Noroeste 8 Noroeste 0 -- -- 83
2020-06-29 02:00:00 17.2 2 Noroeste 6 Noroeste 0 -- -- 80
2020-06-29 01:00:00 19 0 Calma 3 Noroeste 0 -- -- 80
2020-06-29 00:00:00 20.2 0 Calma 3 Este 0 -- -- 81
2020-06-28 23:00:00 21.5 0 Calma 5 Este 0 -- -- 77
2020-06-28 22:00:00 22.8 0 Calma 14 Sudeste 0 -- -- 71
2020-06-28 21:00:00 24.2 4 Sudeste 18 Sudeste 0 -- -- 64
2020-06-28 20:00:00 26.3 10 Sudeste 19 Este 0 -- -- 67
2020-06-28 19:00:00 27.6 5 Sur 23 Sudeste 0 -- -- 57
2020-06-28 18:00:00 28.4 12 Sudeste 24 Este 0 -- -- 57
2020-06-28 17:00:00 29.3 12 Sudeste 26 Este 0 -- -- 53
2020-06-28 16:00:00 29.9 11 Sudeste 26 Sudeste 0 -- -- 53
2020-06-28 15:00:00 30.3 10 Sudeste 21 Sudeste 0 -- -- 50
2020-06-28 14:00:00 29.6 9 Sudeste 23 Este 0 -- -- 50
2020-06-28 13:00:00 28.4 5 Sudeste 20 Este 0 -- -- 49
2020-06-28 12:00:00 27.2 7 Sudeste 19 Este 0 -- -- 49
2020-06-28 11:00:00 26 6 Sudeste 14 Sudeste 0 -- -- 53
2020-06-28 10:00:00 22.8 5 Sudeste 13 Sudeste 0 -- -- 58
2020-06-28 09:00:00 17.2 0 Calma 9 Norte 0 -- -- 74
2020-06-28 08:00:00 14.4 4 Norte 8 Norte 0 -- -- 80
2020-06-28 07:00:00 13.7 4 Norte 9 Noroeste 0 -- -- 83
2020-06-28 06:00:00 14.2 4 Norte 9 Norte 0 -- -- 82
2020-06-28 05:00:00 14.6 4 Norte 10 Noroeste 0 -- -- 81
2020-06-28 04:00:00 15.2 4 Norte 9 Norte 0 -- -- 79
2020-06-28 03:00:00 15.7 4 Noroeste 10 Noroeste 0 -- -- 79
2020-06-28 02:00:00 16.4 4 Noroeste 9 Norte 0 -- -- 77
2020-06-28 01:00:00 17.6 3 Noroeste 8 Norte 0 -- -- 77
2020-06-28 00:00:00 19.2 0 Calma 5 Noroeste 0 -- -- 76
2020-06-27 23:00:00 20.7 0 Calma 2 Sur 0 -- -- 74
2020-06-27 22:00:00 22.6 0 Calma 6 Sur 0 -- -- 68
2020-06-27 21:00:00 24.1 5 Sudeste 19 Sudeste 0 -- -- 62
2020-06-27 20:00:00 26.1 8 Sudeste 24 Este 0 -- -- 62
2020-06-27 19:00:00 26.9 11 Sudeste 24 Este 0 -- -- 57
2020-06-27 18:00:00 27.9 9 Sudeste 24 Sudeste 0 -- -- 54
2020-06-27 17:00:00 29.3 11 Sudeste 26 Sudeste 0 -- -- 48
2020-06-27 16:00:00 30.8 11 Sudeste 28 Este 0 -- -- 45
2020-06-27 15:00:00 32.6 8 Norte 21 Oeste 0 -- -- 28
2020-06-27 14:00:00 31.4 9 Noroeste 22 Oeste 0 -- -- 28
2020-06-27 13:00:00 30.1 5 Oeste 23 Noroeste 0 -- -- 29
2020-06-27 12:00:00 28.2 9 Noroeste 23 Noroeste 0 -- -- 32
2020-06-27 11:00:00 26.2 8 Noroeste 24 Noroeste 0 -- -- 36
2020-06-27 10:00:00 23.5 11 Noroeste 25 Noroeste 0 -- -- 46
2020-06-27 09:00:00 20.3 8 Noroeste 22 Norte 0 -- -- 64
2020-06-27 08:00:00 17.1 11 Norte 22 Noroeste 0 -- -- 71
2020-06-27 07:00:00 13.9 6 Noroeste 12 Noroeste 0 -- -- 83
2020-06-27 06:00:00 14.2 0 Calma 12 Oeste 0 -- -- 80
2020-06-27 05:00:00 14.7 2 Noroeste 12 Norte 0 -- -- 80
2020-06-27 04:00:00 15.5 2 Noroeste 8 Norte 0 -- -- 77
2020-06-27 03:00:00 16.5 3 Norte 10 Noroeste 0 -- -- 75
2020-06-27 02:00:00 17.8 3 Noroeste 8 Noroeste 0 -- -- 76
2020-06-27 01:00:00 18.6 0 Calma 4 Sudoeste 0 -- -- 76
2020-06-27 00:00:00 19.5 0 Calma 2 Sur 0 -- -- 71
2020-06-26 23:00:00 20.9 0 Calma 5 Este 0 -- -- 66
2020-06-26 22:00:00 22.2 2 Sudeste 13 Este 0 -- -- 60
2020-06-26 21:00:00 23.8 6 Sudeste 22 Sudeste 0 -- -- 55
2020-06-26 20:00:00 25.2 9 Sudeste 21 Sudeste 0 -- -- 49
2020-06-26 19:00:00 26.9 6 Sudeste 27 Sudeste 0 -- -- 43
2020-06-26 18:00:00 27.7 9 Sudeste 31 Sudeste 0 -- -- 41
2020-06-26 17:00:00 28.6 9 Sudeste 24 Sudeste 0 -- -- 42
2020-06-26 16:00:00 29 11 Sudeste 24 Sudeste 0 -- -- 40
2020-06-26 15:00:00 29 9 Sudeste 26 Sudeste 0 -- -- 42
2020-06-26 14:00:00 28.1 10 Sudeste 24 Sudeste 0 -- -- 45
2020-06-26 13:00:00 27.4 7 Sudeste 23 Sudeste 0 -- -- 45
2020-06-26 12:00:00 25.9 5 Sur 19 Este 0 -- -- 53
2020-06-26 11:00:00 24.1 8 Sudeste 17 Sudeste 0 -- -- 61
2020-06-26 10:00:00 21.8 3 Sudeste 17 Este 0 -- -- 71
2020-06-26 09:00:00 17 2 Sur 4 Sur 0 -- -- 86
2020-06-26 08:00:00 14 3 Norte 9 Norte 0 -- -- 82
2020-06-26 07:00:00 13.4 2 Noroeste 4 Norte 0 -- -- 83
2020-06-26 06:00:00 14.2 2 Noroeste 8 Noroeste 0 -- -- 80
2020-06-26 05:00:00 14.7 5 Norte 10 Noroeste 0 -- -- 78
2020-06-26 04:00:00 14.5 3 Norte 9 Noroeste 0 -- -- 77
2020-06-26 03:00:00 14.8 3 Norte 7 Noroeste 0 -- -- 75
2020-06-26 02:00:00 15.5 2 Noroeste 6 Noroeste 0 -- -- 73
2020-06-26 01:00:00 16.8 0 Calma 3 Norte 0 -- -- 69
2020-06-26 00:00:00 18.2 0 Calma 3 Sur 0 -- -- 66
2020-06-25 23:00:00 20.5 0 Calma 4 Este 0 -- -- 62
2020-06-25 22:00:00 22.4 2 Sudeste 9 Este 0 -- -- 57
2020-06-25 21:00:00 24.3 5 Sudeste 18 Sudeste 0 -- -- 47
2020-06-25 20:00:00 25.8 8 Sudeste 21 Sudeste 0 -- -- 41
2020-06-25 19:00:00 26.8 11 Sudeste 23 Este 0 -- -- 42
2020-06-25 18:00:00 27.9 6 Sudeste 27 Sudeste 0 -- -- 41
2020-06-25 17:00:00 28.3 8 Sudeste 32 Sudeste 0 -- -- 41
2020-06-25 16:00:00 28.9 9 Sudeste 35 Este 0 -- -- 40
2020-06-25 15:00:00 29.3 13 Sudeste 30 Este 0 -- -- 40
2020-06-25 14:00:00 29.5 10 Sudeste 26 Este 0 -- -- 40
2020-06-25 13:00:00 28.7 8 Sudeste 23 Este 0 -- -- 40
2020-06-25 12:00:00 27.7 10 Sudeste 22 Este 0 -- -- 38
2020-06-25 11:00:00 25.8 5 Sudeste 13 Sudeste 0 -- -- 41
2020-06-25 10:00:00 21.5 3 Sur 9 Sudeste 0 -- -- 58
2020-06-25 09:00:00 17.1 4 Norte 9 Norte 0 -- -- 75
2020-06-25 08:00:00 14.1 4 Norte 11 Norte 0 -- -- 83
2020-06-25 07:00:00 13.5 4 Noroeste 13 Noroeste 0 -- -- 86
2020-06-25 06:00:00 14 5 Norte 12 Noroeste 0 -- -- 86
2020-06-25 05:00:00 14.5 5 Norte 14 Noroeste 0 -- -- 86
2020-06-25 04:00:00 14.5 5 Norte 14 Noroeste 0 -- -- 87
2020-06-25 03:00:00 15.2 4 Noroeste 10 Noroeste 0 -- -- 86
2020-06-25 02:00:00 16.1 0 Calma 7 Noroeste 0 -- -- 86
2020-06-25 01:00:00 17.1 0 Calma 3 Sudoeste 0 -- -- 83
2020-06-25 00:00:00 18 0 Calma 4 Sudoeste 0 -- -- 83
2020-06-24 23:00:00 18.9 0 Calma 6 Norte 0 -- -- 79
2020-06-24 22:00:00 20.3 2 Sudeste 15 Sudeste 0 -- -- 76
2020-06-24 21:00:00 21.8 3 Sudeste 15 Sudeste 0 -- -- 69
2020-06-24 20:00:00 22.6 8 Sudeste 20 Nordeste 0 -- -- 69
2020-06-24 19:00:00 22.7 5 Nordeste 15 Nordeste 0 -- -- 70
2020-06-24 18:00:00 25.3 8 Sudeste 21 Sudeste 0 -- -- 60
2020-06-24 17:00:00 27.9 8 Sudeste 22 Este 0 -- -- 56
2020-06-24 16:00:00 29.4 8 Sudeste 22 Este 0 -- -- 53
2020-06-24 15:00:00 29.6 6 Sudeste 20 Sudeste 0 -- -- 44
2020-06-24 14:00:00 28.4 5 Sudeste 16 Sudeste 0 -- -- 42
2020-06-24 13:00:00 28.1 4 Sur 13 Sudeste 0 -- -- 40
2020-06-24 12:00:00 26 3 Sur 12 Sudoeste 0 -- -- 48
2020-06-24 11:00:00 23.7 4 Sur 13 Sur 0 -- -- 56
2020-06-24 10:00:00 21.2 4 Sur 11 Sur 0 -- -- 64
2020-06-24 09:00:00 17.1 3 Sudeste 9 Sudeste 0 -- -- 74
2020-06-24 08:00:00 14.3 3 Norte 8 Norte 0 -- -- 82
2020-06-24 07:00:00 13.5 3 Noroeste 10 Noroeste 0 -- -- 84
2020-06-24 06:00:00 13.6 2 Norte 12 Noroeste 0 -- -- 84
2020-06-24 05:00:00 13.9 2 Norte 12 Noroeste 0 -- -- 84
2020-06-24 04:00:00 14.3 3 Noroeste 12 Noroeste 0 -- -- 84
2020-06-24 03:00:00 14.7 3 Noroeste 8 Noroeste 0 -- -- 85
2020-06-24 02:00:00 15.8 2 Noroeste 5 Norte 0 -- -- 82
2020-06-24 01:00:00 16.8 0 Calma 4 Noroeste 0 -- -- 79
2020-06-24 00:00:00 17.8 0 Calma 3 Sudoeste 0 -- -- 77
2020-06-23 23:00:00 19.4 0 Calma 5 Este 0 -- -- 72
2020-06-23 22:00:00 20.9 0 Calma 10 Sudeste 0 -- -- 70
2020-06-23 21:00:00 22.5 5 Sudeste 24 Sudeste 0 -- -- 65
2020-06-23 20:00:00 24.8 7 Sudeste 21 Sudeste 0 -- -- 59
2020-06-23 19:00:00 26.3 7 Sudeste 19 Sudeste 0 -- -- 53
2020-06-23 18:00:00 27.2 8 Sudeste 26 Este 0 -- -- 55
2020-06-23 17:00:00 27.8 11 Sudeste 25 Sudeste 0 -- -- 54
2020-06-23 16:00:00 28.7 8 Sudeste 27 Sudeste 0 -- -- 53
2020-06-23 15:00:00 29 8 Sudeste 22 Este 0 -- -- 51
2020-06-23 14:00:00 28.1 9 Sudeste 26 Este 0 -- -- 51
2020-06-23 13:00:00 27.2 6 Sudeste 19 Sudeste 0 -- -- 53
2020-06-23 12:00:00 25.6 7 Sudeste 15 Este 0 -- -- 58
2020-06-23 11:00:00 23.5 5 Sudeste 14 Sudeste 0 -- -- 65
2020-06-23 10:00:00 21 4 Sur 6 Sur 0 -- -- 77
2020-06-23 09:00:00 16.5 2 Sur 4 Sur 0 -- -- 93
2020-06-23 08:00:00 13.8 0 Calma 3 Norte 0 -- -- 88
2020-06-23 07:00:00 13.5 0 Calma 6 Noroeste 0 -- -- 86
2020-06-23 06:00:00 13.8 0 Calma 6 Norte 0 -- -- 85
2020-06-23 05:00:00 14.2 2 Noroeste 5 Norte 0 -- -- 85
2020-06-23 04:00:00 14.9 0 Calma 3 Norte 0 -- -- 82
2020-06-23 03:00:00 15.7 0 Calma 4 Noroeste 0 -- -- 78
2020-06-23 02:00:00 16.7 0 Calma 8 Norte 0 -- -- 77
2020-06-23 01:00:00 17.5 3 Norte 8 Norte 0 -- -- 76
2020-06-23 00:00:00 18.8 0 Calma 3 Noroeste 0 -- -- 73
2020-06-22 23:00:00 20.6 0 Calma 7 Sudeste 0 -- -- 70
2020-06-22 22:00:00 21.9 3 Sur 14 Este 0 -- -- 67
2020-06-22 21:00:00 24 5 Sudeste 18 Sudeste 0 -- -- 58
2020-06-22 20:00:00 25.7 8 Sudeste 24 Sudeste 0 -- -- 51
2020-06-22 19:00:00 27 8 Sudeste 24 Sudeste 0 -- -- 49
2020-06-22 18:00:00 28.3 8 Sudeste 23 Sudeste 0 -- -- 49
2020-06-22 17:00:00 29.2 9 Sudeste 22 Sudeste 0 -- -- 44
2020-06-22 16:00:00 29.3 4 Sur 22 Este 0 -- -- 42
2020-06-22 15:00:00 29 9 Sudeste 28 Sudeste 0 -- -- 42
2020-06-22 14:00:00 28.7 6 Sur 24 Sudeste 0 -- -- 44
2020-06-22 13:00:00 27.6 6 Sudeste 21 Este 0 -- -- 50
2020-06-22 12:00:00 26 7 Sudeste 22 Sudeste 0 -- -- 52
2020-06-22 11:00:00 24.5 8 Sudeste 18 Este 0 -- -- 55
2020-06-22 10:00:00 22.1 4 Sudeste 12 Sudeste 0 -- -- 66
2020-06-22 09:00:00 17.4 0 Calma 4 Sudeste 0 -- -- 84
2020-06-22 08:00:00 14.8 2 Norte 6 Noroeste 0 -- -- 88
2020-06-22 07:00:00 14 3 Norte 6 Norte 0 -- -- 87
2020-06-22 06:00:00 14.3 3 Norte 6 Norte 0 -- -- 86
2020-06-22 05:00:00 14.8 3 Norte 8 Noroeste 0 -- -- 84
2020-06-22 04:00:00 15.3 4 Norte 10 Norte 0 -- -- 82
2020-06-22 03:00:00 15.8 4 Norte 10 Norte 0 -- -- 82
2020-06-22 02:00:00 16.6 4 Noroeste 9 Norte 0 -- -- 82
2020-06-22 01:00:00 17.6 3 Norte 8 Noroeste 0 -- -- 80
2020-06-22 00:00:00 18.8 4 Norte 9 Noroeste 0 -- -- 80
2020-06-21 23:00:00 20.8 0 Calma 3 Noroeste 0 -- -- 76
2020-06-21 22:00:00 22.8 0 Calma 9 Este 0 -- -- 72
2020-06-21 21:00:00 24.7 3 Sudeste 12 Este 0 -- -- 66
2020-06-21 20:00:00 26.1 4 Sudeste 19 Este 0 -- -- 61
2020-06-21 19:00:00 26.6 8 Sudeste 21 Sudeste 0 -- -- 61
2020-06-21 18:00:00 27.2 9 Sudeste 26 Este 0 -- -- 59
2020-06-21 17:00:00 28.4 8 Sudeste 28 Sudeste 0 -- -- 58
2020-06-21 16:00:00 28.9 14 Sudeste 27 Sudeste 0 -- -- 57
2020-06-21 15:00:00 29.3 9 Sudeste 23 Sudeste 0 -- -- 56
2020-06-21 14:00:00 28.9 10 Sudeste 20 Sudeste 0 -- -- 55
2020-06-21 13:00:00 28 9 Sudeste 20 Sudeste 0 -- -- 57
2020-06-21 12:00:00 27.6 5 Sudeste 14 Sudeste 0 -- -- 58
2020-06-21 11:00:00 25.4 4 Sur 8 Sudeste 0 -- -- 64
2020-06-21 10:00:00 22.3 3 Nordeste 10 Noroeste 0 -- -- 70
2020-06-21 09:00:00 18.5 5 Norte 9 Norte 0 -- -- 85
2020-06-21 08:00:00 15.8 2 Norte 19 Noroeste 0 -- -- 88
2020-06-21 07:00:00 16.1 11 Noroeste 23 Noroeste 0 -- -- 88
2020-06-21 06:00:00 15.4 9 Noroeste 19 Noroeste 0 -- -- 90
2020-06-21 05:00:00 15.3 8 Noroeste 15 Noroeste 0 -- -- 91
2020-06-21 04:00:00 14.9 5 Noroeste 12 Noroeste 0 -- -- 91
2020-06-21 03:00:00 15.4 5 Norte 13 Noroeste 0 -- -- 90
2020-06-21 02:00:00 16.2 3 Noroeste 10 Noroeste 0 -- -- 89
2020-06-21 01:00:00 16.7 2 Noroeste 6 Norte 0 -- -- 87
2020-06-21 00:00:00 17.5 0 Calma 3 Norte 0 -- -- 83
2020-06-20 23:00:00 18.9 2 Nordeste 4 Sudeste 0 -- -- 80
2020-06-20 22:00:00 21.3 0 Calma 11 Sudeste 0 -- -- 73
2020-06-20 21:00:00 23.3 3 Sudeste 13 Sudeste 0 -- -- 69
2020-06-20 20:00:00 24.9 5 Sudeste 19 Sudeste 0 -- -- 65
2020-06-20 19:00:00 25.6 8 Sudeste 20 Sudeste 0 -- -- 64
2020-06-20 18:00:00 26.3 5 Sudeste 22 Este 0 -- -- 64
2020-06-20 17:00:00 26.9 11 Sudeste 27 Sudeste 0 -- -- 62
2020-06-20 16:00:00 26.7 12 Sudeste 25 Este 0 -- -- 63
2020-06-20 15:00:00 27.5 10 Sudeste 28 Este 0 -- -- 62
2020-06-20 14:00:00 28.9 6 Sur 20 Sudeste 0 -- -- 51
2020-06-20 13:00:00 27.7 10 Sudeste 24 Este 0 -- -- 56
2020-06-20 12:00:00 26.6 5 Sudeste 18 Sudeste 0 -- -- 60
2020-06-20 11:00:00 24.3 6 Sudoeste 17 Oeste 0 -- -- 67
2020-06-20 10:00:00 21.7 6 Noroeste 16 Noroeste 0 -- -- 73
2020-06-20 09:00:00 17.5 5 Norte 10 Norte 0 -- -- 92
2020-06-20 08:00:00 13.9 0 Calma 9 Noroeste 0 -- -- 95
2020-06-20 07:00:00 13.3 4 Noroeste 8 Noroeste 0 -- -- 95
2020-06-20 06:00:00 13.5 3 Noroeste 10 Norte 0 -- -- 94
2020-06-20 05:00:00 14.1 4 Norte 9 Norte 0 -- -- 93
2020-06-20 04:00:00 14.7 3 Noroeste 8 Noroeste 0 -- -- 91
2020-06-20 03:00:00 15.6 2 Noroeste 6 Norte 0 -- -- 88
2020-06-20 02:00:00 17 0 Calma 5 Norte 0 -- -- 87
2020-06-20 01:00:00 18.4 0 Calma 4 Sudeste 0 -- -- 86
2020-06-20 00:00:00 18.9 2 Sudeste 11 Sudeste 0 -- -- 87
2020-06-19 23:00:00 19 2 Sur 13 Sudeste 0 -- -- 85
2020-06-19 22:00:00 19.2 5 Sudeste 13 Sudeste 0 -- -- 85
2020-06-19 21:00:00 19.6 4 Sudeste 20 Sudeste 0 -- -- 83
2020-06-19 20:00:00 20.2 8 Sudeste 18 Sudeste 0 -- -- 82
2020-06-19 19:00:00 21.2 4 Sudeste 27 Este 0 -- -- 79
2020-06-19 18:00:00 22.9 13 Sudeste 27 Sudeste 0 -- -- 74
2020-06-19 17:00:00 24 12 Sudeste 28 Este 0 -- -- 70
2020-06-19 16:00:00 24.8 10 Sudeste 29 Este 0 -- -- 65
2020-06-19 15:00:00 24.8 9 Sudeste 17 Sudeste 0 -- -- 64
2020-06-19 14:00:00 24 7 Sudeste 18 Sudeste 0 -- -- 65
2020-06-19 13:00:00 22.1 4 Sur 11 Sudoeste 0 -- -- 73
2020-06-19 12:00:00 18.7 2 Sur 8 Sudeste 0 -- -- 88
2020-06-19 11:00:00 17.8 2 Sur 6 Sur 0 -- -- 91
2020-06-19 10:00:00 17.2 0 Calma 6 Este 0 -- -- 94
2020-06-19 09:00:00 16.7 2 Sur 10 Sudeste 0 -- -- 94
2020-06-19 08:00:00 16.7 0 Calma 6 Sudeste 0 -- -- 94
2020-06-19 07:00:00 16.8 0 Calma 10 Sudeste 0.2 -- -- 94
2020-06-19 06:00:00 17 3 Sudeste 10 Este 0.4 -- -- 93
2020-06-19 05:00:00 17 0 Calma 13 Sudeste 0 -- -- 92
2020-06-19 04:00:00 17.1 4 Sudeste 11 Sudeste 0 -- -- 92
2020-06-19 03:00:00 17.3 0 Calma 13 Sudeste 0 -- -- 91
2020-06-19 02:00:00 17.5 4 Sudeste 12 Sudeste 0 -- -- 89
2020-06-19 01:00:00 17.8 2 Sudeste 14 Este 0 -- -- 88
2020-06-19 00:00:00 17.8 4 Sudeste 16 Sudeste 0 -- -- 87
2020-06-18 23:00:00 18.1 3 Sudeste 16 Sudeste 0 -- -- 87
2020-06-18 22:00:00 18.2 5 Sudeste 21 Sudeste 0 -- -- 86
2020-06-18 21:00:00 18.5 12 Sudeste 25 Sudeste 0 -- -- 86
2020-06-18 20:00:00 19.4 11 Sudeste 23 Sudeste 0 -- -- 83
2020-06-18 19:00:00 20.6 10 Sudeste 26 Sudeste 0 -- -- 79
2020-06-18 18:00:00 22 12 Sudeste 24 Sudeste 0 -- -- 73
2020-06-18 17:00:00 21.9 10 Sudeste 26 Sudeste 0 -- -- 73
2020-06-18 16:00:00 22.5 13 Sudeste 32 Sudeste 0 -- -- 69
2020-06-18 15:00:00 23.3 13 Sudeste 31 Sudeste 0 -- -- 65
2020-06-18 14:00:00 23.6 10 Sudeste 28 Este 0 -- -- 61
2020-06-18 13:00:00 23 8 Sudeste 20 Sudeste 0 -- -- 62
2020-06-18 12:00:00 21.9 7 Sudeste 19 Sudeste 0 -- -- 66
2020-06-18 11:00:00 19.7 6 Sudeste 16 Este 0 -- -- 77
2020-06-18 10:00:00 18.5 3 Sur 8 Sur 0 -- -- 84
2020-06-18 09:00:00 17.2 0 Calma 4 Sur 0 -- -- 88
2020-06-18 08:00:00 16.5 0 Calma 3 Sur 0 -- -- 91
2020-06-18 07:00:00 16.3 0 Calma 3 Sur 0 -- -- 92
2020-06-18 06:00:00 16.3 0 Calma 4 Sudeste 0 -- -- 92
2020-06-18 05:00:00 16.3 0 Calma 5 Norte 0 -- -- 91
2020-06-18 04:00:00 16.4 0 Calma 5 Norte 0 -- -- 92
2020-06-18 03:00:00 16.4 0 Calma 10 Nordeste 0 -- -- 93
2020-06-18 02:00:00 16.6 0 Calma 9 Sudeste 0 -- -- 92
2020-06-18 01:00:00 16.6 0 Calma 13 Sudeste 0 -- -- 92
2020-06-18 00:00:00 16.9 3 Sudeste 13 Sudeste 0 -- -- 90
2020-06-17 23:00:00 17.1 4 Sudeste 13 Este 0 -- -- 88
2020-06-17 22:00:00 17.2 5 Sudeste 16 Sudeste 0 -- -- 89
2020-06-17 21:00:00 17.5 4 Sudeste 18 Este 0 -- -- 86
2020-06-17 20:00:00 17.7 7 Sudeste 21 Sudeste 0 -- -- 82
2020-06-17 19:00:00 18 8 Sudeste 26 Este 0 -- -- 81
2020-06-17 18:00:00 19.1 9 Sudeste 25 Sudeste 0 -- -- 80
2020-06-17 17:00:00 20.4 9 Sudeste 24 Este 0 -- -- 75
2020-06-17 16:00:00 22 9 Sudeste 28 Este 0 -- -- 70
2020-06-17 15:00:00 22.3 10 Sudeste 27 Sudeste 0 -- -- 69
2020-06-17 14:00:00 24.6 5 Nordeste 17 Noroeste 0 -- -- 51
2020-06-17 13:00:00 24.4 5 Noroeste 21 Noroeste 0 -- -- 43
2020-06-17 12:00:00 23.1 6 Noroeste 22 Norte 0 -- -- 49
2020-06-17 11:00:00 21.9 8 Noroeste 17 Noroeste 0 -- -- 54
2020-06-17 10:00:00 19 5 Noroeste 17 Noroeste 0 -- -- 72
2020-06-17 09:00:00 15.6 9 Norte 24 Noroeste 0 -- -- 91
2020-06-17 08:00:00 14.5 6 Noroeste 18 Noroeste 0 -- -- 95
2020-06-17 07:00:00 13.1 5 Noroeste 13 Noroeste 0 -- -- 94
2020-06-17 06:00:00 12.9 5 Norte 12 Oeste 0 -- -- 93
2020-06-17 05:00:00 13.4 4 Noroeste 10 Noroeste 0 -- -- 92
2020-06-17 04:00:00 14.3 3 Noroeste 10 Norte 0 -- -- 91
2020-06-17 03:00:00 15.1 2 Noroeste 5 Noroeste 0 -- -- 91
2020-06-17 02:00:00 15.8 2 Noroeste 5 Norte 0 -- -- 90
2020-06-17 01:00:00 16.7 0 Calma 8 Noroeste 0 -- -- 88
2020-06-17 00:00:00 16.6 0 Calma 6 Nordeste 0 -- -- 91
2020-06-16 23:00:00 16.7 0 Calma 5 Este 0 -- -- 89
2020-06-16 22:00:00 16.7 0 Calma 6 Sudeste 0 -- -- 88
2020-06-16 21:00:00 16.9 3 Sudeste 16 Sudeste 0 -- -- 89
2020-06-16 20:00:00 17.3 5 Sudeste 17 Sudeste 0 -- -- 88
2020-06-16 19:00:00 18 4 Sudeste 23 Sudeste 0 -- -- 86
2020-06-16 18:00:00 20.2 7 Sudeste 23 Sudeste 0 -- -- 77
2020-06-16 17:00:00 22.8 9 Sudeste 24 Sudeste 0 -- -- 68
2020-06-16 16:00:00 26.7 6 Sudoeste 26 Noroeste 0 -- -- 38
2020-06-16 15:00:00 26.5 8 Noroeste 29 Oeste 0 -- -- 38
2020-06-16 14:00:00 26.9 6 Oeste 24 Noroeste 0 -- -- 38
2020-06-16 13:00:00 25.3 7 Oeste 19 Oeste 0 -- -- 43
2020-06-16 12:00:00 22.1 5 Sur 14 Sur 0 -- -- 51
2020-06-16 11:00:00 21.9 6 Sudeste 16 Sudeste 0 -- -- 63
2020-06-16 10:00:00 20 3 Nordeste 10 Sudeste 0 -- -- 63
2020-06-16 09:00:00 17.2 3 Sur 9 Noroeste 0 -- -- 73
2020-06-16 08:00:00 15.5 3 Norte 8 Noroeste 0 -- -- 79
2020-06-16 07:00:00 14.6 2 Noroeste 9 Oeste 0 -- -- 80
2020-06-16 06:00:00 14.8 5 Norte 13 Noroeste 0 -- -- 79
2020-06-16 05:00:00 14.8 3 Noroeste 12 Noroeste 0 -- -- 78
2020-06-16 04:00:00 14.4 5 Noroeste 11 Norte 0 -- -- 81
2020-06-16 03:00:00 14.4 4 Noroeste 10 Noroeste 0 -- -- 79
2020-06-16 02:00:00 14.4 3 Noroeste 8 Norte 0 -- -- 78
2020-06-16 01:00:00 14.9 2 Noroeste 6 Noroeste 0 -- -- 77
2020-06-16 00:00:00 16 0 Calma 6 Norte 0 -- -- 77
2020-06-15 23:00:00 17.9 0 Calma 2 Oeste 0 -- -- 76
2020-06-15 22:00:00 19.9 0 Calma 10 Este 0 -- -- 73
2020-06-15 21:00:00 21.8 3 Sudeste 12 Este 0 -- -- 69
2020-06-15 20:00:00 23.7 7 Sudeste 20 Este 0 -- -- 61
2020-06-15 19:00:00 24.8 8 Sudeste 22 Este 0 -- -- 53
2020-06-15 18:00:00 26.2 9 Sudeste 22 Este 0 -- -- 51
2020-06-15 17:00:00 28.7 6 Sur 27 Noroeste 0 -- -- 43
2020-06-15 16:00:00 29.2 8 Oeste 26 Noroeste 0 -- -- 27
2020-06-15 15:00:00 28.8 9 Oeste 24 Noroeste 0 -- -- 29
2020-06-15 14:00:00 28.1 9 Oeste 25 Noroeste 0 -- -- 31
2020-06-15 13:00:00 26.8 8 Oeste 27 Norte 0 -- -- 33
2020-06-15 12:00:00 25 10 Noroeste 24 Noroeste 0 -- -- 36
2020-06-15 11:00:00 23 7 Noroeste 20 Noroeste 0 -- -- 44
2020-06-15 10:00:00 20.2 8 Noroeste 20 Noroeste 0 -- -- 49
2020-06-15 09:00:00 17.3 9 Noroeste 20 Noroeste 0 -- -- 56
2020-06-15 08:00:00 14.4 8 Noroeste 16 Noroeste 0 -- -- 63
2020-06-15 07:00:00 12.9 7 Noroeste 17 Noroeste 0 -- -- 67
2020-06-15 06:00:00 12.8 5 Norte 15 Norte 0 -- -- 70
2020-06-15 05:00:00 13.1 8 Noroeste 19 Norte 0 -- -- 71
2020-06-15 04:00:00 12.9 7 Noroeste 15 Norte 0 -- -- 74
2020-06-15 03:00:00 12.9 4 Noroeste 10 Noroeste 0 -- -- 75
2020-06-15 02:00:00 13.5 4 Noroeste 12 Noroeste 0 -- -- 72
2020-06-15 01:00:00 14.8 3 Norte 6 Noroeste 0 -- -- 69
2020-06-15 00:00:00 16.6 0 Calma 7 Noroeste 0 -- -- 63
2020-06-14 23:00:00 18.5 3 Noroeste 6 Norte 0 -- -- 60
2020-06-14 22:00:00 21.2 0 Calma 13 Nordeste 0 -- -- 53
2020-06-14 21:00:00 24.9 3 Sur 13 Noroeste 0 -- -- 35
2020-06-14 20:00:00 27.1 7 Noroeste 26 Sudoeste 0 -- -- 30
2020-06-14 19:00:00 27.7 6 Sudoeste 21 Noroeste 0 -- -- 31
2020-06-14 18:00:00 28.1 6 Oeste 24 Noroeste 0 -- -- 29
2020-06-14 17:00:00 27.7 9 Noroeste 23 Noroeste 0 -- -- 28
2020-06-14 16:00:00 27.5 6 Oeste 27 Oeste 0 -- -- 29
2020-06-14 15:00:00 26.6 5 Noroeste 24 Sudoeste 0 -- -- 32
2020-06-14 14:00:00 26.3 8 Noroeste 20 Norte 0 -- -- 33
2020-06-14 13:00:00 25.4 4 Oeste 18 Oeste 0 -- -- 34
2020-06-14 12:00:00 23.4 7 Noroeste 15 Oeste 0 -- -- 37
2020-06-14 11:00:00 19.3 7 Norte 18 Noroeste 0 -- -- 50
2020-06-14 10:00:00 16.5 8 Norte 19 Noroeste 0 -- -- 57
2020-06-14 09:00:00 15.3 8 Norte 17 Noroeste 0 -- -- 60
2020-06-14 08:00:00 13.4 4 Noroeste 14 Noroeste 0 -- -- 66
2020-06-14 07:00:00 12.5 6 Noroeste 17 Noroeste 0 -- -- 65
2020-06-14 06:00:00 11.9 6 Noroeste 13 Noroeste 0 -- -- 67
2020-06-14 05:00:00 11.9 6 Noroeste 13 Noroeste 0 -- -- 66
2020-06-14 04:00:00 11.9 2 Norte 10 Noroeste 0 -- -- 66
2020-06-14 03:00:00 12.5 3 Norte 12 Noroeste 0 -- -- 63
2020-06-14 02:00:00 13.7 4 Norte 8 Norte 0 -- -- 59
2020-06-14 01:00:00 15.3 4 Noroeste 11 Norte 0 -- -- 52
2020-06-14 00:00:00 16.7 6 Noroeste 13 Noroeste 0 -- -- 47
2020-06-13 23:00:00 18.1 4 Noroeste 11 Norte 0 -- -- 43
2020-06-13 22:00:00 20.1 3 Noroeste 19 Oeste 0 -- -- 40
2020-06-13 21:00:00 22.7 3 Oeste 22 Noroeste 0 -- -- 37
2020-06-13 20:00:00 24.7 5 Oeste 25 Noroeste 0 -- -- 34
2020-06-13 19:00:00 25.1 8 Oeste 27 Oeste 0 -- -- 32
2020-06-13 18:00:00 25.7 8 Oeste 30 Oeste 0 -- -- 32
2020-06-13 17:00:00 25.3 9 Noroeste 27 Oeste 0 -- -- 32
2020-06-13 16:00:00 24.7 13 Noroeste 32 Oeste 0 -- -- 34
2020-06-13 15:00:00 24.1 9 Noroeste 29 Noroeste 0 -- -- 38
2020-06-13 14:00:00 23 11 Noroeste 30 Oeste 0 -- -- 41
2020-06-13 13:00:00 21.4 13 Oeste 35 Noroeste 0 -- -- 44
2020-06-13 12:00:00 19.9 16 Noroeste 37 Norte 0 -- -- 47
2020-06-13 11:00:00 18.3 13 Noroeste 38 Noroeste 0 -- -- 52
2020-06-13 10:00:00 16.1 10 Noroeste 31 Oeste 0 -- -- 62
2020-06-13 09:00:00 13.7 7 Noroeste 31 Oeste 0 -- -- 69
2020-06-13 08:00:00 12.1 9 Noroeste 26 Noroeste 0 -- -- 72
2020-06-13 07:00:00 11.2 5 Noroeste 19 Norte 0 -- -- 72
2020-06-13 06:00:00 11 4 Noroeste 17 Noroeste 0 -- -- 72
2020-06-13 05:00:00 9.5 0 Calma 4 Oeste 0 -- -- 76
2020-06-13 04:00:00 10 0 Calma 4 Oeste 0 -- -- 72
2020-06-13 03:00:00 11.4 0 Calma 3 Norte 0 -- -- 67
2020-06-13 02:00:00 12.6 0 Calma 4 Norte 0 -- -- 62
2020-06-13 01:00:00 14.1 0 Calma 5 Norte 0 -- -- 55
2020-06-13 00:00:00 15.3 0 Calma 12 Noroeste 0 -- -- 49
2020-06-12 23:00:00 16.6 4 Noroeste 14 Oeste 0 -- -- 46
2020-06-12 22:00:00 18.1 4 Oeste 22 Noroeste 0 -- -- 42
2020-06-12 21:00:00 20.1 8 Noroeste 35 Oeste 0 -- -- 39
2020-06-12 20:00:00 22.2 7 Oeste 32 Noroeste 0 -- -- 36
2020-06-12 19:00:00 23 10 Noroeste 37 Oeste 0 -- -- 34
2020-06-12 18:00:00 23.8 9 Oeste 40 Oeste 0 -- -- 32
2020-06-12 17:00:00 23.3 15 Noroeste 36 Oeste 0 -- -- 33
2020-06-12 16:00:00 23.1 11 Oeste 37 Oeste 0 -- -- 35
2020-06-12 15:00:00 22.4 14 Oeste 46 Oeste 0 -- -- 35
2020-06-12 14:00:00 21.7 11 Oeste 36 Oeste 0 -- -- 36
2020-06-12 13:00:00 20.7 15 Noroeste 44 Oeste 0 -- -- 37
2020-06-12 12:00:00 19.1 17 Noroeste 41 Noroeste 0 -- -- 45
2020-06-12 11:00:00 17.8 17 Noroeste 45 Oeste 0 -- -- 49
2020-06-12 10:00:00 16.5 13 Oeste 51 Noroeste 0 -- -- 53
2020-06-12 09:00:00 15.1 13 Noroeste 44 Noroeste 0 -- -- 57
2020-06-12 08:00:00 14.6 9 Oeste 36 Sudoeste 0 -- -- 58
2020-06-12 07:00:00 15.3 7 Oeste 28 Noroeste 0 -- -- 58
2020-06-12 06:00:00 15.9 9 Noroeste 27 Norte 0 -- -- 59
2020-06-12 05:00:00 16.4 4 Noroeste 28 Oeste 0 -- -- 62
2020-06-12 04:00:00 17.4 6 Oeste 26 Oeste 0 -- -- 61
2020-06-12 03:00:00 17.2 3 Noroeste 24 Oeste 0 -- -- 57
2020-06-12 02:00:00 18.1 3 Oeste 28 Noroeste 0 -- -- 52
2020-06-12 01:00:00 19.4 7 Oeste 30 Oeste 0 -- -- 49
2020-06-12 00:00:00 20.3 7 Oeste 28 Oeste 0 -- -- 45
2020-06-11 23:00:00 21.3 5 Oeste 30 Oeste 0 -- -- 45
2020-06-11 22:00:00 22.7 11 Oeste 34 Oeste 0 -- -- 40
2020-06-11 21:00:00 23.7 7 Oeste 33 Oeste 0 -- -- 38
2020-06-11 20:00:00 25 10 Oeste 36 Oeste 0 -- -- 35
2020-06-11 19:00:00 26.8 12 Noroeste 44 Noroeste 0 -- -- 33
2020-06-11 18:00:00 27.9 12 Oeste 45 Sudoeste 0 -- -- 32
2020-06-11 17:00:00 27.7 14 Oeste 36 Oeste 0 -- -- 32
2020-06-11 16:00:00 27.6 11 Oeste 35 Oeste 0 -- -- 33
2020-06-11 15:00:00 27.1 10 Oeste 32 Noroeste 0 -- -- 33
2020-06-11 14:00:00 25.8 12 Oeste 37 Sudoeste 0 -- -- 36
2020-06-11 13:00:00 24.7 11 Oeste 39 Sudoeste 0 -- -- 43
2020-06-11 12:00:00 23.1 12 Oeste 33 Oeste 0 -- -- 46
2020-06-11 11:00:00 20 8 Oeste 27 Oeste 0 -- -- 51
2020-06-11 10:00:00 18 6 Noroeste 19 Noroeste 0 -- -- 63
2020-06-11 09:00:00 16 7 Noroeste 19 Norte 0 -- -- 82
2020-06-11 08:00:00 13.5 8 Norte 17 Norte 0 -- -- 89
2020-06-11 07:00:00 11.7 8 Noroeste 14 Noroeste 0 -- -- 93
2020-06-11 06:00:00 11.7 3 Noroeste 8 Norte 0 -- -- 91
2020-06-11 05:00:00 12.1 3 Noroeste 6 Norte 0 -- -- 89
2020-06-11 04:00:00 12.4 3 Norte 8 Noroeste 0 -- -- 89
2020-06-11 03:00:00 13.3 0 Calma 5 Noroeste 0 -- -- 84
2020-06-11 02:00:00 14.5 0 Calma 3 Norte 0 -- -- 82
2020-06-11 01:00:00 15.9 0 Calma 6 Sur 0 -- -- 82
2020-06-11 00:00:00 16.9 2 Sur 8 Sudeste 0 -- -- 84
2020-06-10 23:00:00 16.9 5 Sudeste 12 Sudeste 0 -- -- 84
2020-06-10 22:00:00 17.1 2 Sur 9 Sudeste 0 -- -- 81
2020-06-10 21:00:00 18.2 3 Este 12 Sudeste 0 -- -- 77
2020-06-10 20:00:00 19.5 5 Sudeste 17 Sudeste 0 -- -- 71
2020-06-10 19:00:00 20.4 6 Sudeste 22 Sudeste 0 -- -- 67
2020-06-10 18:00:00 22.8 7 Sudeste 28 Este 0 -- -- 59
2020-06-10 17:00:00 25.9 5 Sudoeste 21 Sur 0 -- -- 33
2020-06-10 16:00:00 25.8 5 Oeste 18 Noroeste 0 -- -- 32
2020-06-10 15:00:00 24.7 8 Noroeste 22 Oeste 0 -- -- 37
2020-06-10 14:00:00 23.9 10 Noroeste 23 Noroeste 0 -- -- 40
2020-06-10 13:00:00 22.5 8 Noroeste 21 Norte 0 -- -- 45
2020-06-10 12:00:00 20.2 7 Noroeste 17 Noroeste 0 -- -- 58
2020-06-10 11:00:00 17.8 3 Sudoeste 9 Norte 0 -- -- 73
2020-06-10 10:00:00 16.2 3 Sur 8 Norte 0 -- -- 77
2020-06-10 09:00:00 13.9 4 Noroeste 10 Noroeste 0 -- -- 83
2020-06-10 08:00:00 10 4 Norte 12 Norte 0 -- -- 89
2020-06-10 07:00:00 8.3 4 Norte 13 Norte 0 -- -- 91
2020-06-10 06:00:00 8.3 3 Noroeste 10 Norte 0 -- -- 90
2020-06-10 05:00:00 8.7 3 Noroeste 11 Noroeste 0 -- -- 90
2020-06-10 04:00:00 9.1 3 Noroeste 10 Noroeste 0 -- -- 89
2020-06-10 03:00:00 9.7 3 Noroeste 8 Norte 0 -- -- 88
2020-06-10 02:00:00 10.3 3 Norte 8 Norte 0 -- -- 85
2020-06-10 01:00:00 11.3 3 Norte 8 Noroeste 0 -- -- 84
2020-06-10 00:00:00 12.5 2 Noroeste 10 Noroeste 0 -- -- 82
2020-06-09 23:00:00 13.8 0 Calma 4 Norte 0 -- -- 84
2020-06-09 22:00:00 15.9 0 Calma 10 Este 0 -- -- 76
2020-06-09 21:00:00 17.1 4 Sudeste 21 Sudeste 0 -- -- 72
2020-06-09 20:00:00 18.6 7 Sudeste 19 Este 0 -- -- 71
2020-06-09 19:00:00 19.4 7 Sudeste 22 Sudeste 0 -- -- 68
2020-06-09 18:00:00 20 10 Sudeste 27 Este 0 -- -- 65
2020-06-09 17:00:00 21.2 8 Sudeste 24 Sudeste 0 -- -- 60
2020-06-09 16:00:00 24.1 8 Noroeste 26 Noroeste 0 -- -- 29
2020-06-09 15:00:00 23.1 9 Noroeste 26 Noroeste 0 -- -- 33
2020-06-09 14:00:00 22.8 9 Noroeste 28 Oeste 0 -- -- 35
2020-06-09 13:00:00 21.4 8 Oeste 23 Noroeste 0 -- -- 41
2020-06-09 12:00:00 20.1 10 Noroeste 26 Noroeste 0 -- -- 44
2020-06-09 11:00:00 18.6 5 Noroeste 20 Noroeste 0 -- -- 46
2020-06-09 10:00:00 16.4 6 Noroeste 14 Noroeste 0 -- -- 61
2020-06-09 09:00:00 12.2 5 Norte 13 Noroeste 0 -- -- 80
2020-06-09 08:00:00 9.2 3 Norte 10 Noroeste 0 -- -- 92
2020-06-09 07:00:00 9.1 3 Noroeste 13 Noroeste 0 -- -- 92
2020-06-09 06:00:00 9.8 3 Norte 14 Noroeste 0 -- -- 92
2020-06-09 05:00:00 10.3 4 Noroeste 9 Norte 0 -- -- 92
2020-06-09 04:00:00 11.1 4 Noroeste 10 Noroeste 0 -- -- 92
2020-06-09 03:00:00 12 2 Norte 7 Noroeste 0 -- -- 91
2020-06-09 02:00:00 12.7 3 Noroeste 9 Norte 0 -- -- 90
2020-06-09 01:00:00 12.8 0 Calma 12 Noroeste 0 -- -- 89
2020-06-09 00:00:00 13.6 0 Calma 7 Noroeste 0 -- -- 89
2020-06-08 23:00:00 14.9 0 Calma 5 Sudeste 0 -- -- 88
2020-06-08 22:00:00 15.7 0 Calma 4 Sudeste 0 -- -- 86
2020-06-08 21:00:00 16.4 2 Sur 13 Este 0 -- -- 83
2020-06-08 20:00:00 17.5 5 Sudeste 19 Sudeste 0 -- -- 79
2020-06-08 19:00:00 18.4 4 Sur 14 Sudeste 0 -- -- 75
2020-06-08 18:00:00 18.5 12 Sudeste 20 Este 0 -- -- 71
2020-06-08 17:00:00 19 5 Sur 19 Sudeste 0 -- -- 72
2020-06-08 16:00:00 17.8 4 Sudeste 14 Sudeste 0 -- -- 78
2020-06-08 15:00:00 17 11 Sudeste 19 Sudeste 0 -- -- 81
2020-06-08 14:00:00 17.6 4 Nordeste 17 Noroeste 0 -- -- 80
2020-06-08 13:00:00 13.9 0 Calma 12 Nordeste 15.2 -- -- 96
2020-06-08 12:00:00 13.5 2 Sur 7 Sudeste 0 -- -- 94
2020-06-08 11:00:00 13.3 0 Calma 9 Sudeste 19.6 -- -- 96
2020-06-08 10:00:00 13.7 5 Sudeste 12 Este 13.6 -- -- 94
2020-06-08 09:00:00 14.2 2 Sur 6 Sudeste 0 -- -- 93
2020-06-08 08:00:00 14.1 0 Calma 2 Oeste 0.2 -- -- 94
2020-06-08 07:00:00 13.8 0 Calma 4 Oeste 0.6 -- -- 95
2020-06-08 06:00:00 13.8 0 Calma 6 Noroeste 0 -- -- 93
2020-06-08 05:00:00 13.8 0 Calma 3 Noroeste 0 -- -- 94
2020-06-08 04:00:00 13.7 0 Calma 10 Sudeste 0 -- -- 92
2020-06-08 03:00:00 13.7 4 Sudeste 10 Sudeste 6.6 -- -- 92
2020-06-08 02:00:00 14.2 3 Norte 13 Norte 3.6 -- -- 91
2020-06-08 01:00:00 14.7 0 Calma 8 Sudeste 0 -- -- 86
2020-06-08 00:00:00 16 4 Sudeste 13 Este 0.4 -- -- 84
2020-06-07 23:00:00 17.1 4 Sudeste 18 Sudeste 0 -- -- 75
2020-06-07 22:00:00 17.5 8 Sudeste 19 Este 0 -- -- 79
2020-06-07 21:00:00 18.3 5 Sudeste 23 Sudeste 0 -- -- 79
2020-06-07 20:00:00 19.2 8 Sudeste 22 Sudeste 0 -- -- 75
2020-06-07 19:00:00 20.6 6 Sudeste 28 Sudeste 0 -- -- 72
2020-06-07 18:00:00 23 7 Sudeste 32 Noroeste 0 -- -- 65
2020-06-07 17:00:00 27.3 13 Oeste 40 Noroeste 0 -- -- 35
2020-06-07 16:00:00 27 12 Noroeste 36 Oeste 0 -- -- 36
2020-06-07 15:00:00 26.3 13 Noroeste 37 Oeste 0 -- -- 40
2020-06-07 14:00:00 24.7 14 Noroeste 35 Oeste 0 -- -- 44
2020-06-07 13:00:00 22.8 9 Oeste 31 Norte 0 -- -- 48
2020-06-07 12:00:00 23.7 15 Noroeste 38 Noroeste 0 -- -- 47
2020-06-07 11:00:00 20.3 9 Noroeste 31 Noroeste 0 -- -- 56
2020-06-07 10:00:00 18.9 8 Noroeste 25 Oeste 0 -- -- 56
2020-06-07 09:00:00 18.4 8 Noroeste 24 Oeste 0 -- -- 58
2020-06-07 08:00:00 17.7 5 Noroeste 20 Noroeste 0 -- -- 62
2020-06-07 07:00:00 17.2 9 Norte 21 Norte 0 -- -- 63
2020-06-07 06:00:00 15.8 5 Noroeste 15 Noroeste 0 -- -- 69
2020-06-07 05:00:00 16.1 5 Noroeste 12 Noroeste 0 -- -- 68
2020-06-07 04:00:00 15.6 4 Noroeste 9 Noroeste 0 -- -- 70
2020-06-07 03:00:00 15.7 3 Noroeste 12 Noroeste 0 -- -- 71
2020-06-07 02:00:00 16 4 Norte 10 Norte 0 -- -- 73
2020-06-07 01:00:00 17.1 2 Noroeste 6 Norte 0 -- -- 71
2020-06-07 00:00:00 18.4 2 Noroeste 7 Norte 0 -- -- 66
2020-06-06 23:00:00 20.4 3 Noroeste 7 Norte 0 -- -- 62
2020-06-06 22:00:00 23.2 0 Calma 6 Sudeste 0 -- -- 57
2020-06-06 21:00:00 25.3 3 Sudeste 9 Sudeste 0 -- -- 50
2020-06-06 20:00:00 27.6 6 Noroeste 22 Noroeste 0 -- -- 36
2020-06-06 19:00:00 29.1 10 Noroeste 25 Norte 0 -- -- 33
2020-06-06 18:00:00 29.9 7 Oeste 28 Noroeste 0 -- -- 31
2020-06-06 17:00:00 30 6 Oeste 22 Oeste 0 -- -- 30
2020-06-06 16:00:00 29.5 4 Oeste 25 Oeste 0 -- -- 31
2020-06-06 15:00:00 29.5 7 Oeste 27 Oeste 0 -- -- 32
2020-06-06 14:00:00 28.8 7 Oeste 24 Oeste 0 -- -- 33
2020-06-06 13:00:00 27 11 Noroeste 27 Oeste 0 -- -- 39
2020-06-06 12:00:00 25 9 Noroeste 28 Oeste 0 -- -- 45
2020-06-06 11:00:00 23.6 10 Noroeste 25 Noroeste 0 -- -- 46
2020-06-06 10:00:00 21.1 10 Noroeste 27 Noroeste 0 -- -- 50
2020-06-06 09:00:00 18.4 13 Norte 26 Noroeste 0 -- -- 61
2020-06-06 08:00:00 16.4 8 Norte 20 Norte 0 -- -- 70
2020-06-06 07:00:00 16.1 9 Norte 21 Noroeste 0 -- -- 70
2020-06-06 06:00:00 16.3 7 Norte 18 Noroeste 0 -- -- 69
2020-06-06 05:00:00 16.5 4 Noroeste 18 Norte 0 -- -- 69
2020-06-06 04:00:00 16.6 5 Norte 15 Noroeste 0 -- -- 67
2020-06-06 03:00:00 13.9 4 Noroeste 9 Noroeste 0 -- -- 75
2020-06-06 02:00:00 13.6 3 Norte 9 Noroeste 0 -- -- 77
2020-06-06 01:00:00 15.2 0 Calma 4 Norte 0 -- -- 70
2020-06-06 00:00:00 16.7 2 Noroeste 14 Norte 0 -- -- 66
2020-06-05 23:00:00 18.1 5 Noroeste 10 Norte 0 -- -- 63
2020-06-05 22:00:00 20.1 0 Calma 5 Sur 0 -- -- 60
2020-06-05 21:00:00 22.8 3 Sur 16 Norte 0 -- -- 52
2020-06-05 20:00:00 26 2 Sur 20 Este 0 -- -- 45
2020-06-05 19:00:00 28.2 5 Oeste 18 Oeste 0 -- -- 35
2020-06-05 18:00:00 28.5 6 Oeste 27 Oeste 0 -- -- 33
2020-06-05 17:00:00 28 8 Noroeste 26 Noroeste 0 -- -- 33
2020-06-05 16:00:00 27.4 10 Noroeste 31 Sudoeste 0 -- -- 33
2020-06-05 15:00:00 26.2 12 Oeste 28 Noroeste 0 -- -- 35
2020-06-05 14:00:00 25.2 10 Noroeste 27 Noroeste 0 -- -- 39
2020-06-05 13:00:00 23.6 11 Noroeste 35 Noroeste 0 -- -- 39
2020-06-05 12:00:00 21.9 13 Noroeste 35 Noroeste 0 -- -- 42
2020-06-05 11:00:00 20 10 Noroeste 28 Oeste 0 -- -- 51
2020-06-05 10:00:00 18 12 Noroeste 29 Noroeste 0 -- -- 51
2020-06-05 09:00:00 15 9 Noroeste 25 Norte 0 -- -- 66
2020-06-05 08:00:00 12 6 Noroeste 19 Noroeste 0 -- -- 75
2020-06-05 07:00:00 10.6 5 Noroeste 14 Nordeste 0.2 -- -- 80
2020-06-05 06:00:00 10 0 Calma 14 Sudeste 0 -- -- 82
2020-06-05 05:00:00 10.5 3 Este 12 Este 0 -- -- 81
2020-06-05 04:00:00 11 0 Calma 8 Sudoeste 0 -- -- 81
2020-06-05 03:00:00 12.3 2 Norte 21 Oeste 0 -- -- 74
2020-06-05 02:00:00 12.7 7 Noroeste 25 Noroeste 0 -- -- 75
2020-06-05 01:00:00 12.6 4 Noroeste 16 Norte 0 -- -- 83
2020-06-05 00:00:00 13.1 2 Noroeste 9 Norte 0 -- -- 90
2020-06-04 23:00:00 13.6 3 Norte 13 Oeste 0 -- -- 90
2020-06-04 22:00:00 14.7 5 Noroeste 17 Noroeste 0 -- -- 88
2020-06-04 21:00:00 15.6 6 Noroeste 26 Norte 0 -- -- 84
2020-06-04 20:00:00 16.6 7 Noroeste 23 Norte 0 -- -- 81
2020-06-04 19:00:00 15.2 6 Noroeste 22 Noroeste 0 -- -- 86
2020-06-04 18:00:00 15.1 5 Noroeste 21 Noroeste 0 -- -- 84
2020-06-04 17:00:00 15.1 7 Noroeste 29 Noroeste 0 -- -- 88
2020-06-04 16:00:00 14.1 6 Noroeste 25 Noroeste 0.4 -- -- 93
2020-06-04 15:00:00 13.5 4 Norte 17 Oeste 2 -- -- 92
2020-06-04 14:00:00 14.4 9 Noroeste 25 Noroeste 0.8 -- -- 91
2020-06-04 13:00:00 15.4 5 Noroeste 27 Noroeste 0.2 -- -- 85
2020-06-04 12:00:00 18.4 9 Noroeste 45 Noroeste 0 -- -- 56
2020-06-04 11:00:00 21.5 14 Noroeste 40 Oeste 0 -- -- 57
2020-06-04 10:00:00 20.9 13 Noroeste 46 Oeste 0 -- -- 60
2020-06-04 09:00:00 18.7 15 Noroeste 38 Noroeste 0 -- -- 67
2020-06-04 08:00:00 15.8 4 Noroeste 14 Noroeste 0 -- -- 75
2020-06-04 07:00:00 13.9 0 Calma 4 Oeste 0 -- -- 81
2020-06-04 06:00:00 14.2 0 Calma 6 Noroeste 0 -- -- 83
2020-06-04 05:00:00 15.1 0 Calma 6 Noroeste 0 -- -- 84
2020-06-04 04:00:00 16 3 Noroeste 9 Noroeste 0 -- -- 84
2020-06-04 03:00:00 18 3 Sudeste 10 Sudeste 0 -- -- 80
2020-06-04 02:00:00 18.9 2 Sur 12 Sur 0 -- -- 77
2020-06-04 01:00:00 19.9 4 Sur 15 Sudeste 0 -- -- 78
2020-06-04 00:00:00 20.4 0 Calma 4 Norte 0 -- -- 56